sensor_id;sensor_type;location;lat;lon;timestamp;temperature;humidity
42913;DHT22;50720;54.324;18.558;2023-07-29T00:00:23;14.20;99.90
42913;DHT22;50720;54.324;18.558;2023-07-29T00:03:26;14.20;99.90
42913;DHT22;50720;54.324;18.558;2023-07-29T00:06:15;14.10;99.90
42913;DHT22;50720;54.324;18.558;2023-07-29T00:09:04;14.20;99.90
42913;DHT22;50720;54.324;18.558;2023-07-29T00:11:51;14.20;99.90
42913;DHT22;50720;54.324;18.558;2023-07-29T00:14:39;14.20;99.90
42913;DHT22;50720;54.324;18.558;2023-07-29T00:17:26;14.10;99.90
42913;DHT22;50720;54.324;18.558;2023-07-29T00:20:13;14.10;99.90
42913;DHT22;50720;54.324;18.558;2023-07-29T00:23:01;14.10;99.90
42913;DHT22;50720;54.324;18.558;2023-07-29T00:25:49;14.10;99.90
42913;DHT22;50720;54.324;18.558;2023-07-29T00:28:37;14.10;99.90
42913;DHT22;50720;54.324;18.558;2023-07-29T00:31:24;14.20;99.90
42913;DHT22;50720;54.324;18.558;2023-07-29T00:34:11;14.20;99.90
42913;DHT22;50720;54.324;18.558;2023-07-29T00:37:03;14.10;99.90
42913;DHT22;50720;54.324;18.558;2023-07-29T00:39:51;14.20;99.90
42913;DHT22;50720;54.324;18.558;2023-07-29T00:42:40;14.20;99.90
42913;DHT22;50720;54.324;18.558;2023-07-29T00:45:29;14.20;99.90
42913;DHT22;50720;54.324;18.558;2023-07-29T00:48:17;14.20;99.90
42913;DHT22;50720;54.324;18.558;2023-07-29T00:51:04;14.10;99.90
42913;DHT22;50720;54.324;18.558;2023-07-29T00:53:51;14.20;99.90
42913;DHT22;50720;54.324;18.558;2023-07-29T00:56:39;14.10;99.90
42913;DHT22;50720;54.324;18.558;2023-07-29T00:59:28;14.10;99.90
42913;DHT22;50720;54.324;18.558;2023-07-29T01:02:17;14.00;99.90
42913;DHT22;50720;54.324;18.558;2023-07-29T01:05:05;13.90;99.90
42913;DHT22;50720;54.324;18.558;2023-07-29T01:07:59;13.90;99.90
42913;DHT22;50720;54.324;18.558;2023-07-29T01:10:54;13.80;99.90
42913;DHT22;50720;54.324;18.558;2023-07-29T01:13:50;13.80;99.90
42913;DHT22;50720;54.324;18.558;2023-07-29T01:16:42;13.70;99.90
42913;DHT22;50720;54.324;18.558;2023-07-29T01:19:54;13.60;99.90
42913;DHT22;50720;54.324;18.558;2023-07-29T01:22:43;13.60;99.90
42913;DHT22;50720;54.324;18.558;2023-07-29T01:25:32;13.60;99.90
42913;DHT22;50720;54.324;18.558;2023-07-29T01:28:20;13.60;99.90
42913;DHT22;50720;54.324;18.558;2023-07-29T01:31:12;13.60;99.90
42913;DHT22;50720;54.324;18.558;2023-07-29T01:34:06;13.60;99.90
42913;DHT22;50720;54.324;18.558;2023-07-29T01:36:58;13.50;99.90
42913;DHT22;50720;54.324;18.558;2023-07-29T01:39:49;13.50;99.90
42913;DHT22;50720;54.324;18.558;2023-07-29T01:42:39;13.40;99.90
42913;DHT22;50720;54.324;18.558;2023-07-29T01:45:26;13.40;99.90
42913;DHT22;50720;54.324;18.558;2023-07-29T01:48:14;13.30;99.90
42913;DHT22;50720;54.324;18.558;2023-07-29T01:51:01;13.30;99.90
42913;DHT22;50720;54.324;18.558;2023-07-29T01:53:48;13.30;99.90
42913;DHT22;50720;54.324;18.558;2023-07-29T01:56:35;13.30;99.90
42913;DHT22;50720;54.324;18.558;2023-07-29T01:59:24;13.20;99.90
42913;DHT22;50720;54.324;18.558;2023-07-29T02:02:13;13.20;99.90
42913;DHT22;50720;54.324;18.558;2023-07-29T02:05:02;13.20;99.90
42913;DHT22;50720;54.324;18.558;2023-07-29T02:07:48;13.20;99.90
42913;DHT22;50720;54.324;18.558;2023-07-29T02:10:36;13.20;99.90
42913;DHT22;50720;54.324;18.558;2023-07-29T02:13:23;13.30;99.90
42913;DHT22;50720;54.324;18.558;2023-07-29T02:16:13;13.20;99.90
42913;DHT22;50720;54.324;18.558;2023-07-29T02:19:01;13.20;99.90
42913;DHT22;50720;54.324;18.558;2023-07-29T02:21:48;13.20;99.90
42913;DHT22;50720;54.324;18.558;2023-07-29T02:24:36;13.30;99.90
42913;DHT22;50720;54.324;18.558;2023-07-29T02:27:23;13.30;99.90
42913;DHT22;50720;54.324;18.558;2023-07-29T02:30:12;13.30;99.90
42913;DHT22;50720;54.324;18.558;2023-07-29T02:33:01;13.40;99.90
42913;DHT22;50720;54.324;18.558;2023-07-29T02:35:48;13.40;99.90
42913;DHT22;50720;54.324;18.558;2023-07-29T02:38:36;13.60;99.90
42913;DHT22;50720;54.324;18.558;2023-07-29T02:41:23;13.60;99.90
42913;DHT22;50720;54.324;18.558;2023-07-29T02:44:10;13.70;99.90
42913;DHT22;50720;54.324;18.558;2023-07-29T02:46:57;13.70;99.90
42913;DHT22;50720;54.324;18.558;2023-07-29T02:49:46;13.80;99.90
42913;DHT22;50720;54.324;18.558;2023-07-29T02:52:34;13.80;99.90
42913;DHT22;50720;54.324;18.558;2023-07-29T02:55:21;13.90;99.90
42913;DHT22;50720;54.324;18.558;2023-07-29T02:58:09;13.90;99.90
42913;DHT22;50720;54.324;18.558;2023-07-29T03:01:01;14.00;99.90
42913;DHT22;50720;54.324;18.558;2023-07-29T03:03:48;14.00;99.90
42913;DHT22;50720;54.324;18.558;2023-07-29T03:06:37;14.00;99.90
42913;DHT22;50720;54.324;18.558;2023-07-29T03:09:24;14.00;99.90
42913;DHT22;50720;54.324;18.558;2023-07-29T03:12:11;14.00;99.90
42913;DHT22;50720;54.324;18.558;2023-07-29T03:14:59;14.00;99.90
42913;DHT22;50720;54.324;18.558;2023-07-29T03:17:46;14.00;99.90
42913;DHT22;50720;54.324;18.558;2023-07-29T03:20:34;13.90;99.90
42913;DHT22;50720;54.324;18.558;2023-07-29T03:23:23;13.90;99.90
42913;DHT22;50720;54.324;18.558;2023-07-29T03:26:10;13.80;99.90
42913;DHT22;50720;54.324;18.558;2023-07-29T03:28:58;13.80;99.90
42913;DHT22;50720;54.324;18.558;2023-07-29T03:31:45;13.80;99.90
42913;DHT22;50720;54.324;18.558;2023-07-29T03:34:33;13.80;99.90
42913;DHT22;50720;54.324;18.558;2023-07-29T03:37:20;13.80;99.90
42913;DHT22;50720;54.324;18.558;2023-07-29T03:40:10;13.80;99.90
42913;DHT22;50720;54.324;18.558;2023-07-29T03:42:57;13.90;99.90
42913;DHT22;50720;54.324;18.558;2023-07-29T03:45:45;13.80;99.90
42913;DHT22;50720;54.324;18.558;2023-07-29T03:48:32;13.80;99.90
42913;DHT22;50720;54.324;18.558;2023-07-29T03:51:20;13.80;99.90
42913;DHT22;50720;54.324;18.558;2023-07-29T03:54:08;13.80;99.90
42913;DHT22;50720;54.324;18.558;2023-07-29T03:56:58;13.80;99.90
42913;DHT22;50720;54.324;18.558;2023-07-29T03:59:45;13.90;99.90
42913;DHT22;50720;54.324;18.558;2023-07-29T04:02:33;13.90;99.90
42913;DHT22;50720;54.324;18.558;2023-07-29T04:05:22;14.00;99.90
42913;DHT22;50720;54.324;18.558;2023-07-29T04:08:10;14.00;99.90
42913;DHT22;50720;54.324;18.558;2023-07-29T04:10:57;14.00;99.90
42913;DHT22;50720;54.324;18.558;2023-07-29T04:13:46;14.00;99.90
42913;DHT22;50720;54.324;18.558;2023-07-29T04:16:33;14.10;99.90
42913;DHT22;50720;54.324;18.558;2023-07-29T04:19:22;14.20;99.90
42913;DHT22;50720;54.324;18.558;2023-07-29T04:22:09;14.10;99.90
42913;DHT22;50720;54.324;18.558;2023-07-29T04:24:56;14.30;99.90
42913;DHT22;50720;54.324;18.558;2023-07-29T04:27:44;14.40;99.90
42913;DHT22;50720;54.324;18.558;2023-07-29T04:30:33;14.50;99.90
42913;DHT22;50720;54.324;18.558;2023-07-29T04:33:20;14.50;99.90
42913;DHT22;50720;54.324;18.558;2023-07-29T04:36:08;14.50;99.90
42913;DHT22;50720;54.324;18.558;2023-07-29T04:38:56;14.60;99.90
42913;DHT22;50720;54.324;18.558;2023-07-29T04:41:43;14.70;99.90
42913;DHT22;50720;54.324;18.558;2023-07-29T04:44:31;14.70;99.90
42913;DHT22;50720;54.324;18.558;2023-07-29T04:47:20;14.80;99.90
42913;DHT22;50720;54.324;18.558;2023-07-29T04:50:08;15.00;99.90
42913;DHT22;50720;54.324;18.558;2023-07-29T04:52:57;15.20;99.90
42913;DHT22;50720;54.324;18.558;2023-07-29T04:55:46;15.40;99.90
42913;DHT22;50720;54.324;18.558;2023-07-29T04:58:33;15.30;99.90
42913;DHT22;50720;54.324;18.558;2023-07-29T05:01:21;15.60;99.90
42913;DHT22;50720;54.324;18.558;2023-07-29T05:04:10;15.60;99.90
42913;DHT22;50720;54.324;18.558;2023-07-29T05:06:57;15.70;99.90
42913;DHT22;50720;54.324;18.558;2023-07-29T05:09:45;15.90;99.90
42913;DHT22;50720;54.324;18.558;2023-07-29T05:12:32;16.00;99.90
42913;DHT22;50720;54.324;18.558;2023-07-29T05:15:19;16.10;99.90
42913;DHT22;50720;54.324;18.558;2023-07-29T05:18:07;16.20;99.90
42913;DHT22;50720;54.324;18.558;2023-07-29T05:20:56;16.30;99.90
42913;DHT22;50720;54.324;18.558;2023-07-29T05:23:44;16.30;99.90
42913;DHT22;50720;54.324;18.558;2023-07-29T05:26:31;16.40;99.90
42913;DHT22;50720;54.324;18.558;2023-07-29T05:29:18;16.50;99.90
42913;DHT22;50720;54.324;18.558;2023-07-29T05:32:06;16.50;99.90
42913;DHT22;50720;54.324;18.558;2023-07-29T05:34:53;16.70;99.90
42913;DHT22;50720;54.324;18.558;2023-07-29T05:37:42;16.70;99.90
42913;DHT22;50720;54.324;18.558;2023-07-29T05:40:29;16.70;99.90
42913;DHT22;50720;54.324;18.558;2023-07-29T05:43:16;16.80;99.90
42913;DHT22;50720;54.324;18.558;2023-07-29T05:46:05;16.80;99.90
42913;DHT22;50720;54.324;18.558;2023-07-29T05:48:52;17.00;99.90
42913;DHT22;50720;54.324;18.558;2023-07-29T05:51:39;17.00;99.90
42913;DHT22;50720;54.324;18.558;2023-07-29T05:54:28;17.00;99.90
42913;DHT22;50720;54.324;18.558;2023-07-29T05:57:16;17.10;99.90
42913;DHT22;50720;54.324;18.558;2023-07-29T06:00:04;17.20;99.90
42913;DHT22;50720;54.324;18.558;2023-07-29T06:02:51;17.30;99.90
42913;DHT22;50720;54.324;18.558;2023-07-29T06:05:39;17.30;99.90
42913;DHT22;50720;54.324;18.558;2023-07-29T06:08:26;17.40;99.90
42913;DHT22;50720;54.324;18.558;2023-07-29T06:11:16;17.60;99.90
42913;DHT22;50720;54.324;18.558;2023-07-29T06:14:04;17.90;99.90
42913;DHT22;50720;54.324;18.558;2023-07-29T06:16:51;17.90;99.90
42913;DHT22;50720;54.324;18.558;2023-07-29T06:19:39;18.10;99.90
42913;DHT22;50720;54.324;18.558;2023-07-29T06:22:26;18.20;99.90
42913;DHT22;50720;54.324;18.558;2023-07-29T06:25:13;18.30;99.90
42913;DHT22;50720;54.324;18.558;2023-07-29T06:28:02;18.50;99.90
42913;DHT22;50720;54.324;18.558;2023-07-29T06:30:50;18.40;99.90
42913;DHT22;50720;54.324;18.558;2023-07-29T06:33:37;18.50;99.90
42913;DHT22;50720;54.324;18.558;2023-07-29T06:36:24;18.60;99.90
42913;DHT22;50720;54.324;18.558;2023-07-29T06:39:12;18.70;99.90
42913;DHT22;50720;54.324;18.558;2023-07-29T06:42:00;18.90;99.90
42913;DHT22;50720;54.324;18.558;2023-07-29T06:44:49;18.90;99.90
42913;DHT22;50720;54.324;18.558;2023-07-29T06:47:36;19.10;99.90
42913;DHT22;50720;54.324;18.558;2023-07-29T06:50:24;19.20;99.90
42913;DHT22;50720;54.324;18.558;2023-07-29T06:53:11;19.40;99.90
42913;DHT22;50720;54.324;18.558;2023-07-29T06:55:59;19.40;99.90
42913;DHT22;50720;54.324;18.558;2023-07-29T06:58:45;19.50;99.90
42913;DHT22;50720;54.324;18.558;2023-07-29T07:01:36;19.60;99.90
42913;DHT22;50720;54.324;18.558;2023-07-29T07:04:26;19.70;99.90
42913;DHT22;50720;54.324;18.558;2023-07-29T07:07:13;19.80;99.90
42913;DHT22;50720;54.324;18.558;2023-07-29T07:10:00;19.90;99.90
42913;DHT22;50720;54.324;18.558;2023-07-29T07:12:47;20.10;99.90
42913;DHT22;50720;54.324;18.558;2023-07-29T07:15:33;20.30;99.90
42913;DHT22;50720;54.324;18.558;2023-07-29T07:18:21;20.40;99.90
42913;DHT22;50720;54.324;18.558;2023-07-29T07:21:08;20.60;99.90
42913;DHT22;50720;54.324;18.558;2023-07-29T07:23:55;20.80;99.90
42913;DHT22;50720;54.324;18.558;2023-07-29T07:26:42;20.70;99.90
42913;DHT22;50720;54.324;18.558;2023-07-29T07:29:29;20.90;99.90
42913;DHT22;50720;54.324;18.558;2023-07-29T07:32:16;20.90;99.90
42913;DHT22;50720;54.324;18.558;2023-07-29T07:35:05;21.10;99.90
42913;DHT22;50720;54.324;18.558;2023-07-29T07:37:52;21.10;99.90
42913;DHT22;50720;54.324;18.558;2023-07-29T07:40:39;21.00;99.90
42913;DHT22;50720;54.324;18.558;2023-07-29T07:43:25;21.10;99.90
42913;DHT22;50720;54.324;18.558;2023-07-29T07:46:12;21.40;99.90
42913;DHT22;50720;54.324;18.558;2023-07-29T07:48:59;21.30;99.90
42913;DHT22;50720;54.324;18.558;2023-07-29T07:51:47;21.50;99.90
42913;DHT22;50720;54.324;18.558;2023-07-29T07:54:34;21.50;99.90
42913;DHT22;50720;54.324;18.558;2023-07-29T07:57:21;21.60;99.90
42913;DHT22;50720;54.324;18.558;2023-07-29T08:00:09;21.60;99.90
42913;DHT22;50720;54.324;18.558;2023-07-29T08:02:57;21.60;99.90
42913;DHT22;50720;54.324;18.558;2023-07-29T08:05:43;21.60;99.90
42913;DHT22;50720;54.324;18.558;2023-07-29T08:08:33;21.90;99.90
42913;DHT22;50720;54.324;18.558;2023-07-29T08:11:19;21.80;99.90
42913;DHT22;50720;54.324;18.558;2023-07-29T08:14:06;21.90;99.90
42913;DHT22;50720;54.324;18.558;2023-07-29T08:16:53;21.90;99.90
42913;DHT22;50720;54.324;18.558;2023-07-29T08:19:40;21.90;99.90
42913;DHT22;50720;54.324;18.558;2023-07-29T08:22:27;21.90;99.90
42913;DHT22;50720;54.324;18.558;2023-07-29T08:25:15;22.00;99.90
42913;DHT22;50720;54.324;18.558;2023-07-29T08:28:02;22.20;99.90
42913;DHT22;50720;54.324;18.558;2023-07-29T08:30:50;22.20;99.90
42913;DHT22;50720;54.324;18.558;2023-07-29T08:33:37;22.20;99.90
42913;DHT22;50720;54.324;18.558;2023-07-29T08:36:24;22.20;99.90
42913;DHT22;50720;54.324;18.558;2023-07-29T08:39:11;22.40;99.90
42913;DHT22;50720;54.324;18.558;2023-07-29T08:42:02;22.40;99.90
42913;DHT22;50720;54.324;18.558;2023-07-29T08:44:52;22.40;99.90
42913;DHT22;50720;54.324;18.558;2023-07-29T08:47:41;22.50;99.90
42913;DHT22;50720;54.324;18.558;2023-07-29T08:50:30;22.50;99.90
42913;DHT22;50720;54.324;18.558;2023-07-29T08:53:18;22.20;99.90
42913;DHT22;50720;54.324;18.558;2023-07-29T08:56:06;22.40;99.90
42913;DHT22;50720;54.324;18.558;2023-07-29T08:58:55;22.60;99.90
42913;DHT22;50720;54.324;18.558;2023-07-29T09:01:42;22.70;99.90
42913;DHT22;50720;54.324;18.558;2023-07-29T09:04:29;22.60;99.90
42913;DHT22;50720;54.324;18.558;2023-07-29T09:07:16;22.60;99.90
42913;DHT22;50720;54.324;18.558;2023-07-29T09:10:04;22.70;99.90
42913;DHT22;50720;54.324;18.558;2023-07-29T09:12:51;22.80;99.90
42913;DHT22;50720;54.324;18.558;2023-07-29T09:15:40;22.80;99.90
42913;DHT22;50720;54.324;18.558;2023-07-29T09:18:27;23.00;99.90
42913;DHT22;50720;54.324;18.558;2023-07-29T09:21:16;23.00;99.90
42913;DHT22;50720;54.324;18.558;2023-07-29T09:24:03;23.00;99.90
42913;DHT22;50720;54.324;18.558;2023-07-29T09:26:53;23.00;99.90
42913;DHT22;50720;54.324;18.558;2023-07-29T09:29:40;23.00;99.90
42913;DHT22;50720;54.324;18.558;2023-07-29T09:32:29;23.00;99.90
42913;DHT22;50720;54.324;18.558;2023-07-29T09:35:16;23.00;99.90
42913;DHT22;50720;54.324;18.558;2023-07-29T09:38:04;22.90;99.90
42913;DHT22;50720;54.324;18.558;2023-07-29T09:40:55;22.90;99.90
42913;DHT22;50720;54.324;18.558;2023-07-29T09:43:41;23.00;99.90
42913;DHT22;50720;54.324;18.558;2023-07-29T09:46:33;23.10;99.90
42913;DHT22;50720;54.324;18.558;2023-07-29T09:49:23;23.20;99.90
42913;DHT22;50720;54.324;18.558;2023-07-29T09:52:10;23.20;99.90
42913;DHT22;50720;54.324;18.558;2023-07-29T09:54:57;23.10;99.90
42913;DHT22;50720;54.324;18.558;2023-07-29T09:57:44;23.20;99.90
42913;DHT22;50720;54.324;18.558;2023-07-29T10:00:33;23.20;99.90
42913;DHT22;50720;54.324;18.558;2023-07-29T10:03:21;23.20;99.90
42913;DHT22;50720;54.324;18.558;2023-07-29T10:06:11;23.20;99.90
42913;DHT22;50720;54.324;18.558;2023-07-29T10:08:58;23.20;99.90
42913;DHT22;50720;54.324;18.558;2023-07-29T10:11:46;23.30;99.60
42913;DHT22;50720;54.324;18.558;2023-07-29T10:14:34;23.40;99.20
42913;DHT22;50720;54.324;18.558;2023-07-29T10:17:21;23.40;99.20
42913;DHT22;50720;54.324;18.558;2023-07-29T10:20:10;23.40;99.90
42913;DHT22;50720;54.324;18.558;2023-07-29T10:23:00;23.50;99.90
42913;DHT22;50720;54.324;18.558;2023-07-29T10:25:50;23.50;98.40
42913;DHT22;50720;54.324;18.558;2023-07-29T10:28:41;23.70;98.60
42913;DHT22;50720;54.324;18.558;2023-07-29T10:31:30;23.90;97.50
42913;DHT22;50720;54.324;18.558;2023-07-29T10:34:18;23.90;97.40
42913;DHT22;50720;54.324;18.558;2023-07-29T10:37:05;23.90;97.50
42913;DHT22;50720;54.324;18.558;2023-07-29T10:39:56;24.10;97.00
42913;DHT22;50720;54.324;18.558;2023-07-29T10:43:01;24.10;97.10
42913;DHT22;50720;54.324;18.558;2023-07-29T10:45:49;24.50;95.80
42913;DHT22;50720;54.324;18.558;2023-07-29T10:48:40;24.60;93.70
42913;DHT22;50720;54.324;18.558;2023-07-29T10:51:28;24.70;92.70
42913;DHT22;50720;54.324;18.558;2023-07-29T10:54:17;24.60;92.10
42913;DHT22;50720;54.324;18.558;2023-07-29T10:57:06;25.40;91.30
42913;DHT22;50720;54.324;18.558;2023-07-29T10:59:56;26.20;88.10
42913;DHT22;50720;54.324;18.558;2023-07-29T11:02:56;27.50;81.60
42913;DHT22;50720;54.324;18.558;2023-07-29T11:05:50;28.00;77.00
42913;DHT22;50720;54.324;18.558;2023-07-29T11:08:37;28.00;77.20
42913;DHT22;50720;54.324;18.558;2023-07-29T11:11:24;28.50;75.70
42913;DHT22;50720;54.324;18.558;2023-07-29T11:14:13;28.70;75.10
42913;DHT22;50720;54.324;18.558;2023-07-29T11:17:00;29.00;73.50
42913;DHT22;50720;54.324;18.558;2023-07-29T11:19:48;29.10;74.30
42913;DHT22;50720;54.324;18.558;2023-07-29T11:22:37;28.40;70.10
42913;DHT22;50720;54.324;18.558;2023-07-29T11:25:27;28.40;70.30
42913;DHT22;50720;54.324;18.558;2023-07-29T11:28:14;28.90;70.30
42913;DHT22;50720;54.324;18.558;2023-07-29T11:31:03;29.20;68.70
42913;DHT22;50720;54.324;18.558;2023-07-29T11:33:50;29.40;67.90
42913;DHT22;50720;54.324;18.558;2023-07-29T11:36:37;28.70;69.70
42913;DHT22;50720;54.324;18.558;2023-07-29T11:39:24;27.60;71.10
42913;DHT22;50720;54.324;18.558;2023-07-29T11:42:12;27.30;71.60
42913;DHT22;50720;54.324;18.558;2023-07-29T11:45:00;26.90;74.20
42913;DHT22;50720;54.324;18.558;2023-07-29T11:47:49;26.50;74.60
42913;DHT22;50720;54.324;18.558;2023-07-29T11:50:36;26.60;75.20
42913;DHT22;50720;54.324;18.558;2023-07-29T11:53:27;27.60;74.80
42913;DHT22;50720;54.324;18.558;2023-07-29T11:56:14;27.60;75.40
42913;DHT22;50720;54.324;18.558;2023-07-29T11:59:01;27.50;73.50
42913;DHT22;50720;54.324;18.558;2023-07-29T12:01:49;27.50;74.10
42913;DHT22;50720;54.324;18.558;2023-07-29T12:04:39;27.50;75.00
42913;DHT22;50720;54.324;18.558;2023-07-29T12:07:26;27.50;75.20
42913;DHT22;50720;54.324;18.558;2023-07-29T12:10:13;28.30;74.30
42913;DHT22;50720;54.324;18.558;2023-07-29T12:13:02;28.90;72.00
42913;DHT22;50720;54.324;18.558;2023-07-29T12:15:49;29.20;71.60
42913;DHT22;50720;54.324;18.558;2023-07-29T12:18:36;29.60;71.30
42913;DHT22;50720;54.324;18.558;2023-07-29T12:21:25;29.70;71.80
42913;DHT22;50720;54.324;18.558;2023-07-29T12:24:13;29.70;71.50
42913;DHT22;50720;54.324;18.558;2023-07-29T12:27:00;28.90;71.40
42913;DHT22;50720;54.324;18.558;2023-07-29T12:29:47;28.40;71.70
42913;DHT22;50720;54.324;18.558;2023-07-29T12:32:44;27.70;73.50
42913;DHT22;50720;54.324;18.558;2023-07-29T12:35:36;27.70;76.00
42913;DHT22;50720;54.324;18.558;2023-07-29T12:38:26;27.90;73.90
42913;DHT22;50720;54.324;18.558;2023-07-29T12:41:13;28.10;74.10
42913;DHT22;50720;54.324;18.558;2023-07-29T12:44:01;28.60;72.80
42913;DHT22;50720;54.324;18.558;2023-07-29T12:46:48;28.80;74.60
42913;DHT22;50720;54.324;18.558;2023-07-29T12:49:34;28.90;74.80
42913;DHT22;50720;54.324;18.558;2023-07-29T12:52:21;28.90;75.00
42913;DHT22;50720;54.324;18.558;2023-07-29T12:55:10;27.30;78.00
42913;DHT22;50720;54.324;18.558;2023-07-29T12:57:58;27.00;80.30
42913;DHT22;50720;54.324;18.558;2023-07-29T13:00:46;26.90;80.80
42913;DHT22;50720;54.324;18.558;2023-07-29T13:03:33;26.30;87.40
42913;DHT22;50720;54.324;18.558;2023-07-29T13:06:20;26.30;88.20
42913;DHT22;50720;54.324;18.558;2023-07-29T13:09:07;26.30;91.60
42913;DHT22;50720;54.324;18.558;2023-07-29T13:11:55;26.30;92.30
42913;DHT22;50720;54.324;18.558;2023-07-29T13:14:42;26.20;92.80
42913;DHT22;50720;54.324;18.558;2023-07-29T13:17:29;26.40;93.40
42913;DHT22;50720;54.324;18.558;2023-07-29T13:20:16;26.30;93.90
42913;DHT22;50720;54.324;18.558;2023-07-29T13:23:04;26.00;94.70
42913;DHT22;50720;54.324;18.558;2023-07-29T13:25:51;26.00;94.90
42913;DHT22;50720;54.324;18.558;2023-07-29T13:28:40;26.00;95.70
42913;DHT22;50720;54.324;18.558;2023-07-29T13:31:27;26.10;96.20
42913;DHT22;50720;54.324;18.558;2023-07-29T13:34:14;26.10;96.30
42913;DHT22;50720;54.324;18.558;2023-07-29T13:37:01;26.20;96.40
42913;DHT22;50720;54.324;18.558;2023-07-29T13:39:49;26.10;96.50
42913;DHT22;50720;54.324;18.558;2023-07-29T13:42:36;26.40;96.80
42913;DHT22;50720;54.324;18.558;2023-07-29T13:45:24;26.90;95.90
42913;DHT22;50720;54.324;18.558;2023-07-29T13:48:11;27.40;95.90
42913;DHT22;50720;54.324;18.558;2023-07-29T13:50:59;28.10;94.40
42913;DHT22;50720;54.324;18.558;2023-07-29T13:53:45;28.10;94.70
42913;DHT22;50720;54.324;18.558;2023-07-29T13:56:33;28.60;92.20
42913;DHT22;50720;54.324;18.558;2023-07-29T13:59:20;28.70;92.50
42913;DHT22;50720;54.324;18.558;2023-07-29T14:02:08;28.40;91.70
42913;DHT22;50720;54.324;18.558;2023-07-29T14:04:56;28.20;92.60
42913;DHT22;50720;54.324;18.558;2023-07-29T14:07:43;28.20;92.80
42913;DHT22;50720;54.324;18.558;2023-07-29T14:10:29;27.90;93.40
42913;DHT22;50720;54.324;18.558;2023-07-29T14:13:17;28.50;92.80
42913;DHT22;50720;54.324;18.558;2023-07-29T14:16:04;28.90;92.30
42913;DHT22;50720;54.324;18.558;2023-07-29T14:18:52;29.10;90.60
42913;DHT22;50720;54.324;18.558;2023-07-29T14:21:39;29.30;90.60
42913;DHT22;50720;54.324;18.558;2023-07-29T14:24:27;29.30;90.80
42913;DHT22;50720;54.324;18.558;2023-07-29T14:27:14;29.30;90.80
42913;DHT22;50720;54.324;18.558;2023-07-29T14:30:02;28.90;91.20
42913;DHT22;50720;54.324;18.558;2023-07-29T14:32:49;28.80;91.80
42913;DHT22;50720;54.324;18.558;2023-07-29T14:35:37;29.30;91.70
42913;DHT22;50720;54.324;18.558;2023-07-29T14:38:24;29.20;91.20
42913;DHT22;50720;54.324;18.558;2023-07-29T14:41:12;28.50;92.30
42913;DHT22;50720;54.324;18.558;2023-07-29T14:43:59;28.50;92.70
42913;DHT22;50720;54.324;18.558;2023-07-29T14:46:46;28.70;91.70
42913;DHT22;50720;54.324;18.558;2023-07-29T14:49:33;28.50;92.20
42913;DHT22;50720;54.324;18.558;2023-07-29T14:52:22;28.50;92.40
42913;DHT22;50720;54.324;18.558;2023-07-29T14:55:09;28.80;93.20
42913;DHT22;50720;54.324;18.558;2023-07-29T14:57:56;29.30;90.70
42913;DHT22;50720;54.324;18.558;2023-07-29T15:00:42;29.30;90.50
42913;DHT22;50720;54.324;18.558;2023-07-29T15:03:30;29.30;90.70
42913;DHT22;50720;54.324;18.558;2023-07-29T15:06:17;29.10;92.60
42913;DHT22;50720;54.324;18.558;2023-07-29T15:09:05;29.10;92.80
42913;DHT22;50720;54.324;18.558;2023-07-29T15:11:53;29.70;91.50
42913;DHT22;50720;54.324;18.558;2023-07-29T15:14:40;29.70;91.70
42913;DHT22;50720;54.324;18.558;2023-07-29T15:17:27;29.40;90.60
42913;DHT22;50720;54.324;18.558;2023-07-29T15:20:14;29.30;91.20
42913;DHT22;50720;54.324;18.558;2023-07-29T15:23:01;28.80;90.90
42913;DHT22;50720;54.324;18.558;2023-07-29T15:25:50;29.20;91.90
42913;DHT22;50720;54.324;18.558;2023-07-29T15:28:37;29.20;92.10
42913;DHT22;50720;54.324;18.558;2023-07-29T15:31:24;28.80;92.30
42913;DHT22;50720;54.324;18.558;2023-07-29T15:34:12;28.60;92.70
42913;DHT22;50720;54.324;18.558;2023-07-29T15:36:59;28.40;92.40
42913;DHT22;50720;54.324;18.558;2023-07-29T15:39:46;28.50;92.60
42913;DHT22;50720;54.324;18.558;2023-07-29T15:42:35;28.60;92.80
42913;DHT22;50720;54.324;18.558;2023-07-29T15:45:22;28.60;92.20
42913;DHT22;50720;54.324;18.558;2023-07-29T15:48:09;28.30;92.70
42913;DHT22;50720;54.324;18.558;2023-07-29T15:50:56;27.80;94.10
42913;DHT22;50720;54.324;18.558;2023-07-29T15:53:43;27.80;94.30
42913;DHT22;50720;54.324;18.558;2023-07-29T15:56:30;27.60;95.20
42913;DHT22;50720;54.324;18.558;2023-07-29T15:59:23;27.40;95.40
42913;DHT22;50720;54.324;18.558;2023-07-29T16:02:10;27.10;96.30
42913;DHT22;50720;54.324;18.558;2023-07-29T16:04:57;27.10;96.50
42913;DHT22;50720;54.324;18.558;2023-07-29T16:07:44;26.90;97.50
42913;DHT22;50720;54.324;18.558;2023-07-29T16:10:31;26.70;98.10
42913;DHT22;50720;54.324;18.558;2023-07-29T16:13:18;26.50;98.00
42913;DHT22;50720;54.324;18.558;2023-07-29T16:16:07;26.30;98.40
42913;DHT22;50720;54.324;18.558;2023-07-29T16:18:53;26.20;98.70
42913;DHT22;50720;54.324;18.558;2023-07-29T16:21:41;26.10;99.20
42913;DHT22;50720;54.324;18.558;2023-07-29T16:24:28;25.90;99.70
42913;DHT22;50720;54.324;18.558;2023-07-29T16:27:15;25.90;99.90
42913;DHT22;50720;54.324;18.558;2023-07-29T16:30:03;25.90;99.90
42913;DHT22;50720;54.324;18.558;2023-07-29T16:32:52;25.70;99.90
42913;DHT22;50720;54.324;18.558;2023-07-29T16:35:38;25.60;99.90
42913;DHT22;50720;54.324;18.558;2023-07-29T16:38:26;25.50;99.90
42913;DHT22;50720;54.324;18.558;2023-07-29T16:41:12;25.40;99.90
42913;DHT22;50720;54.324;18.558;2023-07-29T16:44:00;25.50;99.90
42913;DHT22;50720;54.324;18.558;2023-07-29T16:46:47;25.30;99.90
42913;DHT22;50720;54.324;18.558;2023-07-29T16:49:37;25.20;99.90
42913;DHT22;50720;54.324;18.558;2023-07-29T16:52:24;25.20;99.90
42913;DHT22;50720;54.324;18.558;2023-07-29T16:55:10;24.90;99.90
42913;DHT22;50720;54.324;18.558;2023-07-29T16:57:58;24.70;99.90
42913;DHT22;50720;54.324;18.558;2023-07-29T17:00:45;24.70;99.90
42913;DHT22;50720;54.324;18.558;2023-07-29T17:03:31;24.30;99.90
42913;DHT22;50720;54.324;18.558;2023-07-29T17:06:20;24.10;99.90
42913;DHT22;50720;54.324;18.558;2023-07-29T17:09:07;24.10;99.90
42913;DHT22;50720;54.324;18.558;2023-07-29T17:11:55;23.90;99.90
42913;DHT22;50720;54.324;18.558;2023-07-29T17:14:44;23.70;99.90
42913;DHT22;50720;54.324;18.558;2023-07-29T17:17:31;23.70;99.90
42913;DHT22;50720;54.324;18.558;2023-07-29T17:20:19;23.60;99.90
42913;DHT22;50720;54.324;18.558;2023-07-29T17:23:07;23.50;99.90